Terminal Aerodrome Forecast
Issued by NWS Shreveport, LA

Home | Current Version | Previous Version | Text Only | Print | Product List | Glossary On
Versions: 1 2 3 4 5 6 7 8 9 10 11 12 13 14
000
FTUS44 KSHV 061147
TAFTXK
TAF
KTXK 061147Z 0612/0712 15007KT P6SM VCSH FEW070 BKN100 BKN250
     FM061500 16009KT P6SM VCSH SCT020 BKN100 BKN250
     FM061700 15010KT P6SM SCT035 BKN100 BKN250
     FM070100 14006KT P6SM SCT060 SCT100 BKN250=

USA.gov is the U.S. government's official web portal to all federal, state and local government web resources and services.